createdAt,value
2023-03-08T00:00:06.308Z,53.33
2023-03-08T00:02:33.037Z,50.23
2023-03-08T00:05:02.231Z,52.17
2023-03-08T00:07:29.877Z,47.78
2023-03-08T00:09:56.813Z,50.22
2023-03-08T00:12:24.059Z,43.85
2023-03-08T00:14:52.530Z,53.75
2023-03-08T00:17:19.633Z,48.05
2023-03-08T00:19:46.766Z,51.28
2023-03-08T00:22:14.387Z,45.28
2023-03-08T00:24:41.164Z,46.75
2023-03-08T00:27:08.071Z,52.60
2023-03-08T00:29:35.138Z,51.28
2023-03-08T00:32:01.893Z,47.42
2023-03-08T00:34:28.858Z,46.85
2023-03-08T00:36:55.855Z,47.22
2023-03-08T00:39:22.697Z,48.92
2023-03-08T00:41:50.149Z,50.25
2023-03-08T00:44:17.267Z,51.83
2023-03-08T00:46:44.034Z,52.83
2023-03-08T00:49:13.173Z,57.35
2023-03-08T00:51:40.034Z,49.75
2023-03-08T00:54:07.020Z,51.40
2023-03-08T00:56:33.868Z,51.63
2023-03-08T00:59:02.713Z,52.05
2023-03-08T01:01:32.486Z,46.97
2023-03-08T01:03:59.460Z,52.03
2023-03-08T01:06:27.461Z,47.17
2023-03-08T01:08:55.726Z,49.33
2023-03-08T01:11:25.045Z,52.95
2023-03-08T01:13:53.010Z,51.75
2023-03-08T01:16:28.869Z,50.55
2023-03-08T01:18:56.062Z,48.70
2023-03-08T01:21:23.691Z,47.97
2023-03-08T01:23:51.098Z,47.83
2023-03-08T01:26:21.230Z,49.70
2023-03-08T01:28:49.313Z,45.30
2023-03-08T01:31:25.165Z,51.47
2023-03-08T01:33:52.361Z,48.92
2023-03-08T01:36:22.568Z,44.60
2023-03-08T01:38:50.304Z,48.67
2023-03-08T01:41:26.886Z,52.60
2023-03-08T01:43:54.422Z,49.17
2023-03-08T01:46:36.184Z,50.60
2023-03-08T01:49:14.966Z,44.58
2023-03-08T01:52:02.913Z,52.67
2023-03-08T01:54:43.474Z,49.88
2023-03-08T01:57:25.015Z,43.50
2023-03-08T01:59:54.041Z,41.80
2023-03-08T02:02:28.424Z,45.25
2023-03-08T02:04:55.390Z,45.03
2023-03-08T02:07:22.485Z,42.67
2023-03-08T02:09:49.843Z,41.10
2023-03-08T02:12:17.232Z,39.38
2023-03-08T02:14:44.824Z,41.05
2023-03-08T02:17:12.218Z,35.83
2023-03-08T02:19:45.624Z,39.28
2023-03-08T02:22:15.278Z,41.38
2023-03-08T02:24:42.671Z,35.20
2023-03-08T02:27:26.260Z,39.00
2023-03-08T02:29:53.288Z,38.85
2023-03-08T02:32:20.339Z,39.20
2023-03-08T02:34:47.133Z,41.83
2023-03-08T02:37:14.021Z,40.65
2023-03-08T02:39:41.066Z,39.50
2023-03-08T02:42:08.152Z,37.50
2023-03-08T02:44:34.868Z,40.70
2023-03-08T02:47:01.779Z,39.13
2023-03-08T02:49:28.523Z,39.42
2023-03-08T02:51:55.362Z,36.13
2023-03-08T02:54:22.242Z,38.15
2023-03-08T02:56:48.989Z,42.53
2023-03-08T02:59:16.783Z,38.95
2023-03-08T03:01:44.553Z,36.90
2023-03-08T03:04:14.273Z,36.60
2023-03-08T03:06:41.671Z,42.50
2023-03-08T03:09:11.322Z,39.85
2023-03-08T03:11:39.681Z,34.13
2023-03-08T03:14:06.620Z,38.25
2023-03-08T03:16:36.353Z,37.75
2023-03-08T03:19:03.985Z,38.72
2023-03-08T03:21:32.184Z,40.08
2023-03-08T03:23:59.229Z,36.42
2023-03-08T03:26:26.483Z,39.22
2023-03-08T03:28:56.872Z,41.03
2023-03-08T03:31:25.179Z,39.22
2023-03-08T03:33:52.177Z,41.15
2023-03-08T03:36:21.528Z,39.45
2023-03-08T03:38:49.294Z,40.85
2023-03-08T03:41:19.050Z,37.90
2023-03-08T03:43:46.148Z,38.67
2023-03-08T03:46:16.831Z,37.10
2023-03-08T03:51:18.527Z,43.30
2023-03-08T03:53:48.519Z,38.70
2023-03-08T03:56:17.017Z,33.20
2023-03-08T03:58:46.940Z,32.88
2023-03-08T04:01:27.398Z,38.50
2023-03-08T04:03:55.846Z,37.80
2023-03-08T04:06:27.887Z,34.72
2023-03-08T04:08:59.270Z,33.50
2023-03-08T04:11:28.561Z,34.22
2023-03-08T04:13:55.749Z,34.65
2023-03-08T04:16:28.766Z,34.92
2023-03-08T04:18:59.374Z,34.92
2023-03-08T04:21:26.774Z,34.15
2023-03-08T04:23:54.572Z,36.35
2023-03-08T04:26:22.427Z,36.05
2023-03-08T04:28:49.355Z,35.70
2023-03-08T04:31:17.545Z,39.97
2023-03-08T04:33:45.994Z,41.47
2023-03-08T04:36:15.751Z,46.83
2023-03-08T04:38:43.455Z,45.90
2023-03-08T04:41:12.964Z,44.47
2023-03-08T04:43:53.542Z,54.13
2023-03-08T04:46:24.011Z,44.88
2023-03-08T04:48:54.093Z,37.17
2023-03-08T04:51:22.646Z,42.22
2023-03-08T04:53:50.980Z,38.60
2023-03-08T04:56:19.405Z,36.47
2023-03-08T04:58:46.945Z,34.03
2023-03-08T05:01:24.992Z,31.15
2023-03-08T05:03:53.736Z,29.05
2023-03-08T05:06:24.119Z,25.85
2023-03-08T05:08:51.755Z,24.15
2023-03-08T05:11:25.725Z,22.20
2023-03-08T05:13:58.763Z,23.40
2023-03-08T05:16:27.490Z,23.73
2023-03-08T05:18:54.591Z,26.88
2023-03-08T05:21:22.855Z,27.50
2023-03-08T05:24:02.642Z,31.20
2023-03-08T05:26:46.155Z,28.83
2023-03-08T05:29:35.333Z,26.85
2023-03-08T05:39:08.112Z,29.00
2023-03-08T05:42:13.883Z,25.30
2023-03-08T05:45:11.511Z,23.20
2023-03-08T05:51:44.682Z,20.05
2023-03-08T05:54:26.074Z,18.23
2023-03-08T05:57:12.929Z,21.27
2023-03-08T06:02:54.312Z,20.83
2023-03-08T06:05:52.194Z,24.85
2023-03-08T06:08:54.105Z,26.17
2023-03-08T06:11:51.409Z,26.73
2023-03-08T06:14:29.063Z,22.92
2023-03-08T06:17:36.743Z,23.65
2023-03-08T06:23:01.386Z,18.70
2023-03-08T06:25:44.550Z,17.63
2023-03-08T06:28:11.750Z,14.95
2023-03-08T06:30:38.774Z,13.05
2023-03-08T06:33:05.500Z,12.23
2023-03-08T06:35:33.624Z,14.68
2023-03-08T06:38:00.349Z,11.30
2023-03-08T06:40:27.179Z,15.60
2023-03-08T06:42:55.995Z,21.15
2023-03-08T06:45:22.750Z,14.48
2023-03-08T06:47:51.094Z,19.00
2023-03-08T06:50:18.105Z,13.23
2023-03-08T06:52:47.344Z,11.15
2023-03-08T06:55:14.088Z,13.23
2023-03-08T06:57:40.890Z,19.45
2023-03-08T07:00:09.761Z,14.52
2023-03-08T07:02:36.648Z,12.38
2023-03-08T07:05:03.654Z,16.48
2023-03-08T07:07:44.758Z,17.65
2023-03-08T07:10:20.714Z,15.98
2023-03-08T07:12:56.150Z,14.95
2023-03-08T07:15:25.613Z,16.58
2023-03-08T07:18:00.591Z,19.80
2023-03-08T07:20:27.965Z,13.05
2023-03-08T07:22:55.107Z,18.80
2023-03-08T07:25:22.715Z,14.23
2023-03-08T07:27:51.186Z,18.08
2023-03-08T07:30:19.094Z,18.10
2023-03-08T07:32:47.627Z,14.00
2023-03-08T07:35:17.277Z,11.55
2023-03-08T07:37:46.260Z,16.67
2023-03-08T07:40:16.433Z,13.35
2023-03-08T07:42:45.784Z,12.23
2023-03-08T07:45:13.542Z,22.70
2023-03-08T07:47:45.425Z,17.77
2023-03-08T07:50:16.638Z,20.08
2023-03-08T07:52:43.557Z,22.83
2023-03-08T07:55:15.642Z,19.50
2023-03-08T07:57:42.635Z,17.88
2023-03-08T08:00:10.543Z,19.23
2023-03-08T08:02:40.288Z,24.80
2023-03-08T08:05:09.430Z,16.45
2023-03-08T08:07:36.599Z,18.98
2023-03-08T08:10:09.349Z,15.65
2023-03-08T08:12:39.494Z,14.27
2023-03-08T08:15:06.818Z,11.65
2023-03-08T08:17:33.800Z,16.95
2023-03-08T08:20:00.615Z,19.02
2023-03-08T08:22:27.782Z,19.08
2023-03-08T08:24:55.761Z,16.50
2023-03-08T08:27:30.454Z,21.25
2023-03-08T08:30:23.003Z,17.52
2023-03-08T08:32:50.134Z,17.30
2023-03-08T08:35:42.133Z,20.55
2023-03-08T08:38:22.748Z,20.80
2023-03-08T08:40:49.852Z,20.63
2023-03-08T08:43:17.302Z,20.52
2023-03-08T08:45:54.980Z,19.35
2023-03-08T08:48:22.191Z,8.35
2023-03-08T08:50:49.371Z,5.82
2023-03-08T08:53:20.795Z,12.10
2023-03-08T08:55:58.087Z,9.85
2023-03-08T08:58:28.673Z,7.88
2023-03-08T09:00:58.835Z,5.25
2023-03-08T09:03:36.367Z,10.85
2023-03-08T09:06:10.424Z,10.75
2023-03-08T09:08:45.893Z,14.00
2023-03-08T09:11:13.082Z,10.13
2023-03-08T09:13:44.454Z,7.53
2023-03-08T09:16:23.144Z,9.20
2023-03-08T09:18:51.430Z,7.15
2023-03-08T09:21:25.158Z,7.72
2023-03-08T09:23:54.783Z,7.63
2023-03-08T09:26:24.337Z,6.70
2023-03-08T09:28:55.021Z,8.35
2023-03-08T09:34:02.413Z,6.53
2023-03-08T09:36:32.167Z,6.65
2023-03-08T09:39:00.668Z,6.57
2023-03-08T09:41:42.256Z,12.77
2023-03-08T09:44:34.464Z,9.57
2023-03-08T09:47:04.956Z,9.60
2023-03-08T09:49:35.548Z,6.57
2023-03-08T09:54:35.598Z,10.77
2023-03-08T09:57:13.973Z,11.60
2023-03-08T09:59:50.454Z,8.50
2023-03-08T10:02:20.127Z,10.43
2023-03-08T10:05:13.808Z,10.90
2023-03-08T10:07:57.053Z,11.93
2023-03-08T10:10:26.551Z,11.88
2023-03-08T10:13:38.861Z,8.25
2023-03-08T10:16:15.136Z,11.05
2023-03-08T10:18:56.975Z,9.40
2023-03-08T10:21:25.834Z,17.42
2023-03-08T10:24:28.116Z,13.68
2023-03-08T10:27:00.471Z,10.80
2023-03-08T10:29:27.298Z,11.38
2023-03-08T10:31:54.029Z,8.95
2023-03-08T10:34:31.108Z,13.88
2023-03-08T10:37:04.071Z,13.02
2023-03-08T10:39:31.424Z,9.98
2023-03-08T10:42:01.838Z,11.02
2023-03-08T10:44:54.267Z,6.93
2023-03-08T10:47:35.469Z,12.18
2023-03-08T10:50:16.709Z,9.23
2023-03-08T10:52:45.565Z,10.00
2023-03-08T10:55:27.478Z,9.82
2023-03-08T10:57:57.602Z,11.15
2023-03-08T11:00:29.276Z,20.83
2023-03-08T11:03:07.434Z,23.42
2023-03-08T11:05:34.274Z,22.25
2023-03-08T11:08:01.205Z,33.88
2023-03-08T11:10:29.920Z,33.97
2023-03-08T11:13:16.548Z,33.10
2023-03-08T11:15:47.608Z,25.75
2023-03-08T11:18:23.851Z,24.23
2023-03-08T11:20:57.540Z,37.42
2023-03-08T11:23:34.215Z,39.67
2023-03-08T11:26:09.696Z,35.45
2023-03-08T11:28:59.517Z,29.42
2023-03-08T11:31:35.577Z,31.75
2023-03-08T11:34:24.964Z,25.05
2023-03-08T11:37:17.678Z,23.63
2023-03-08T11:40:00.102Z,26.75
2023-03-08T11:42:26.925Z,28.73
2023-03-08T11:45:18.681Z,26.55
2023-03-08T11:48:02.584Z,23.20
2023-03-08T11:50:35.792Z,23.70
2023-03-08T11:53:18.692Z,19.80
2023-03-08T11:56:07.048Z,27.08
2023-03-08T11:58:55.313Z,23.95
2023-03-08T12:01:31.312Z,27.95
2023-03-08T12:04:06.306Z,25.55
2023-03-08T12:06:41.108Z,26.20
2023-03-08T12:09:42.835Z,26.85
2023-03-08T12:12:18.870Z,31.35
2023-03-08T12:14:57.213Z,27.52
2023-03-08T12:17:32.205Z,28.13
2023-03-08T12:19:59.070Z,26.80
2023-03-08T12:22:46.884Z,22.73
2023-03-08T12:25:25.538Z,26.05
2023-03-08T12:28:05.041Z,25.02
2023-03-08T12:30:37.328Z,28.40
2023-03-08T12:33:05.989Z,25.15
2023-03-08T12:35:38.228Z,31.02
2023-03-08T12:38:20.586Z,31.30
2023-03-08T12:40:50.246Z,36.92
2023-03-08T12:43:19.994Z,32.88
2023-03-08T12:45:57.074Z,29.50
2023-03-08T12:48:41.029Z,29.13
2023-03-08T12:51:16.760Z,29.88
2023-03-08T12:53:53.203Z,26.17
2023-03-08T12:56:29.905Z,24.00
2023-03-08T12:59:17.476Z,23.10
2023-03-08T13:01:59.190Z,28.58
2023-03-08T13:04:42.478Z,27.25
2023-03-08T13:07:22.588Z,29.10
2023-03-08T13:10:01.726Z,30.43
2023-03-08T13:12:53.232Z,27.55
2023-03-08T13:15:23.526Z,33.70
2023-03-08T13:17:58.170Z,30.27
2023-03-08T13:20:35.503Z,31.55
2023-03-08T13:23:09.350Z,29.98
2023-03-08T13:25:41.677Z,25.98
2023-03-08T13:28:12.893Z,21.08
2023-03-08T13:30:58.098Z,20.95
2023-03-08T13:33:27.731Z,23.65
2023-03-08T13:36:06.438Z,21.92
2023-03-08T13:38:38.077Z,17.67
2023-03-08T13:41:06.321Z,16.35
2023-03-08T13:43:34.801Z,18.05
2023-03-08T13:46:12.193Z,18.80
2023-03-08T13:48:39.236Z,21.88
2023-03-08T13:51:08.845Z,72.60
2023-03-08T13:53:38.066Z,23.37
2023-03-08T13:56:07.088Z,20.25
2023-03-08T13:58:40.879Z,20.60
2023-03-08T14:01:12.247Z,18.85
2023-03-08T14:03:41.391Z,16.92
2023-03-08T14:06:21.361Z,15.95
2023-03-08T14:08:48.283Z,34.13
2023-03-08T14:11:24.420Z,28.02
2023-03-08T14:13:53.910Z,17.98
2023-03-08T14:16:35.848Z,25.77
2023-03-08T14:19:14.605Z,23.30
2023-03-08T14:21:53.928Z,23.15
2023-03-08T14:24:23.989Z,23.10
2023-03-08T14:27:02.742Z,26.33
2023-03-08T14:29:31.894Z,29.67
2023-03-08T14:32:06.141Z,24.65
2023-03-08T14:34:36.628Z,26.95
2023-03-08T14:37:11.892Z,27.80
2023-03-08T14:39:56.357Z,26.10
2023-03-08T14:42:33.859Z,27.00
2023-03-08T14:45:18.191Z,24.70
2023-03-08T14:48:03.197Z,26.08
2023-03-08T14:50:34.438Z,31.15
2023-03-08T14:53:03.037Z,35.53
2023-03-08T14:55:36.563Z,35.22
2023-03-08T14:58:10.589Z,35.47
2023-03-08T15:00:37.877Z,32.67
2023-03-08T15:03:04.897Z,27.42
2023-03-08T15:05:33.416Z,35.08
2023-03-08T15:08:00.676Z,37.85
2023-03-08T15:10:29.245Z,33.50
2023-03-08T15:12:56.783Z,38.72
2023-03-08T15:15:23.844Z,40.25
2023-03-08T15:17:50.753Z,33.47
2023-03-08T15:20:18.218Z,29.10
2023-03-08T15:22:48.267Z,38.45
2023-03-08T15:25:26.242Z,32.95
2023-03-08T15:27:53.240Z,32.25
2023-03-08T15:30:23.132Z,36.03
2023-03-08T15:32:50.066Z,32.55
2023-03-08T15:35:17.674Z,27.05
2023-03-08T15:37:47.606Z,31.65
2023-03-08T15:40:18.011Z,28.50
2023-03-08T15:42:45.758Z,28.58
2023-03-08T15:45:14.886Z,22.55
2023-03-08T15:47:42.348Z,25.05
2023-03-08T15:50:18.470Z,21.80
2023-03-08T15:52:46.198Z,24.35
2023-03-08T15:55:14.643Z,26.73
2023-03-08T15:57:42.074Z,31.85
2023-03-08T16:00:12.735Z,37.70
2023-03-08T16:05:09.593Z,56.53
2023-03-08T16:07:36.746Z,35.60
2023-03-08T16:10:05.399Z,35.30
2023-03-08T16:12:32.281Z,30.98
2023-03-08T16:14:59.249Z,31.98
2023-03-08T16:17:30.761Z,32.33
2023-03-08T16:19:57.620Z,36.03
2023-03-08T16:22:27.970Z,35.17
2023-03-08T16:24:58.092Z,37.38
2023-03-08T16:27:27.190Z,46.08
2023-03-08T16:29:53.994Z,55.08
2023-03-08T16:32:22.201Z,66.85
2023-03-08T16:34:51.019Z,55.35
2023-03-08T16:37:19.122Z,55.33
2023-03-08T16:39:46.239Z,69.82
2023-03-08T16:42:14.052Z,64.90
2023-03-08T16:44:50.866Z,57.88
2023-03-08T16:47:21.778Z,69.40
2023-03-08T16:49:49.965Z,54.40
2023-03-08T16:52:18.109Z,51.90
2023-03-08T16:54:45.350Z,91.75
2023-03-08T16:57:19.101Z,79.40
2023-03-08T16:59:46.767Z,68.10
2023-03-08T17:02:15.676Z,64.43
2023-03-08T17:04:42.754Z,65.60
2023-03-08T17:07:11.555Z,58.75
2023-03-08T17:09:39.713Z,55.53
2023-03-08T17:12:10.157Z,57.90
2023-03-08T17:14:37.538Z,59.50
2023-03-08T17:17:06.137Z,54.22
2023-03-08T17:19:33.122Z,54.53
2023-03-08T17:21:59.988Z,60.42
2023-03-08T17:24:28.204Z,54.15
2023-03-08T17:26:55.439Z,55.13
2023-03-08T17:29:22.738Z,48.47
2023-03-08T17:31:49.851Z,55.45
2023-03-08T17:34:17.754Z,60.22
2023-03-08T17:36:46.816Z,59.45
2023-03-08T17:39:14.868Z,60.70
2023-03-08T17:41:44.710Z,64.68
2023-03-08T17:44:12.059Z,60.92
2023-03-08T17:46:41.608Z,70.00
2023-03-08T17:49:08.439Z,67.60
2023-03-08T17:51:37.520Z,76.68
2023-03-08T17:54:05.209Z,73.03
2023-03-08T17:56:37.028Z,84.13
2023-03-08T17:59:06.189Z,77.93
2023-03-08T18:01:33.583Z,66.03
2023-03-08T18:04:07.996Z,58.33
2023-03-08T18:06:38.189Z,65.47
2023-03-08T18:09:11.164Z,111.60
2023-03-08T18:11:38.139Z,67.55
2023-03-08T18:14:10.521Z,59.17
2023-03-08T18:16:38.558Z,54.78
2023-03-08T18:19:06.692Z,56.22
2023-03-08T18:21:35.330Z,62.15
2023-03-08T18:24:02.723Z,60.28
2023-03-08T18:26:29.652Z,56.40
2023-03-08T18:28:56.642Z,55.65
2023-03-08T18:31:26.471Z,56.22
2023-03-08T18:33:55.599Z,55.38
2023-03-08T18:36:23.112Z,51.72
2023-03-08T18:38:50.122Z,47.25
2023-03-08T18:41:21.319Z,49.33
2023-03-08T18:43:48.235Z,45.85
2023-03-08T18:46:15.204Z,46.92
2023-03-08T18:48:42.803Z,46.97
2023-03-08T18:51:10.439Z,51.63
2023-03-08T18:53:37.941Z,49.65
2023-03-08T18:56:05.482Z,62.72
2023-03-08T18:58:33.523Z,67.30
2023-03-08T19:01:02.787Z,67.45
2023-03-08T19:03:30.689Z,70.88
2023-03-08T19:06:00.961Z,72.45
2023-03-08T19:08:28.285Z,70.00
2023-03-08T19:10:55.127Z,82.35
2023-03-08T19:13:22.013Z,81.00
2023-03-08T19:15:48.963Z,82.80
2023-03-08T19:18:15.776Z,82.18
2023-03-08T19:20:43.452Z,72.53
2023-03-08T19:23:10.917Z,88.10
2023-03-08T19:25:58.315Z,90.38
2023-03-08T19:28:25.209Z,89.47
2023-03-08T19:30:52.406Z,92.15
2023-03-08T19:33:30.540Z,93.63
2023-03-08T19:35:58.555Z,93.57
2023-03-08T19:38:28.386Z,97.30
2023-03-08T19:40:55.229Z,83.63
2023-03-08T19:43:22.068Z,75.78
2023-03-08T19:45:49.772Z,72.57
2023-03-08T19:48:16.698Z,75.53
2023-03-08T19:50:47.100Z,83.32
2023-03-08T19:53:13.984Z,71.55
2023-03-08T19:55:51.300Z,78.15
2023-03-08T19:58:18.852Z,71.22
2023-03-08T20:00:46.089Z,65.90
2023-03-08T20:03:14.826Z,60.60
2023-03-08T20:05:44.112Z,68.65
2023-03-08T20:08:12.814Z,68.90
2023-03-08T20:10:42.235Z,65.90
2023-03-08T20:13:09.017Z,69.47
2023-03-08T20:15:35.849Z,91.65
2023-03-08T20:18:02.770Z,68.20
2023-03-08T20:20:29.610Z,63.15
2023-03-08T20:22:56.404Z,68.43
2023-03-08T20:25:23.332Z,58.97
2023-03-08T20:27:50.103Z,62.22
2023-03-08T20:30:19.468Z,61.97
2023-03-08T20:32:46.298Z,61.83
2023-03-08T20:35:15.074Z,58.88
2023-03-08T20:37:43.290Z,62.80
2023-03-08T20:40:12.420Z,68.68
2023-03-08T20:42:39.800Z,87.63
2023-03-08T20:45:07.354Z,85.78
2023-03-08T20:47:34.103Z,71.15
2023-03-08T20:50:00.842Z,71.70
2023-03-08T20:52:27.654Z,78.68
2023-03-08T20:54:55.500Z,68.72
2023-03-08T20:57:23.281Z,70.85
2023-03-08T20:59:50.462Z,66.60
2023-03-08T21:02:17.445Z,63.50
2023-03-08T21:04:44.360Z,66.97
2023-03-08T21:07:11.209Z,62.40
2023-03-08T21:09:37.934Z,62.28
2023-03-08T21:12:04.900Z,65.75
2023-03-08T21:14:31.925Z,62.33
2023-03-08T21:16:58.675Z,67.07
2023-03-08T21:19:25.428Z,69.03
2023-03-08T21:21:53.679Z,72.78
2023-03-08T21:24:23.286Z,72.32
2023-03-08T21:26:50.829Z,65.95
2023-03-08T21:29:19.869Z,73.82
2023-03-08T21:31:49.148Z,66.18
2023-03-08T21:34:17.251Z,70.22
2023-03-08T21:36:44.846Z,66.15
2023-03-08T21:39:12.247Z,70.53
2023-03-08T21:41:43.144Z,62.53
2023-03-08T21:44:16.379Z,66.80
2023-03-08T21:46:43.603Z,58.33
2023-03-08T21:49:17.766Z,66.80
2023-03-08T21:51:44.917Z,57.60
2023-03-08T21:54:13.122Z,56.72
2023-03-08T21:56:40.328Z,50.13
2023-03-08T21:59:07.201Z,56.78
2023-03-08T22:01:34.569Z,49.83
2023-03-08T22:04:02.773Z,56.90
2023-03-08T22:06:30.264Z,48.08
2023-03-08T22:08:57.466Z,46.42
2023-03-08T22:11:26.161Z,45.03
2023-03-08T22:13:57.390Z,48.10
2023-03-08T22:16:25.492Z,41.88
2023-03-08T22:18:53.616Z,41.85
2023-03-08T22:21:20.774Z,44.53
2023-03-08T22:23:56.626Z,43.90
2023-03-08T22:26:25.013Z,41.28
2023-03-08T22:28:53.166Z,42.72
2023-03-08T22:31:25.249Z,46.15
2023-03-08T22:33:52.231Z,44.53
2023-03-08T22:36:20.514Z,43.88
2023-03-08T22:38:47.999Z,46.22
2023-03-08T22:41:26.644Z,42.72
2023-03-08T22:43:54.545Z,46.60
2023-03-08T22:46:24.410Z,53.30
2023-03-08T22:48:54.506Z,46.42
2023-03-08T22:51:22.316Z,49.13
2023-03-08T22:53:51.601Z,44.25
2023-03-08T22:56:29.600Z,47.10
2023-03-08T22:58:57.860Z,41.72
2023-03-08T23:01:25.921Z,37.22
2023-03-08T23:04:00.377Z,35.72
2023-03-08T23:06:29.203Z,38.15
2023-03-08T23:08:58.056Z,39.65
2023-03-08T23:11:25.474Z,37.28
2023-03-08T23:13:52.926Z,35.95
2023-03-08T23:16:23.202Z,47.35
2023-03-08T23:18:51.603Z,41.22
2023-03-08T23:21:20.227Z,44.13
2023-03-08T23:23:47.635Z,42.25
2023-03-08T23:26:18.547Z,41.17
2023-03-08T23:28:45.394Z,42.22
2023-03-08T23:31:19.816Z,41.20
2023-03-08T23:33:48.171Z,36.90
2023-03-08T23:36:17.328Z,38.42
2023-03-08T23:38:44.775Z,36.92
2023-03-08T23:41:13.648Z,39.88
2023-03-08T23:43:41.467Z,35.17
2023-03-08T23:46:14.407Z,39.97
2023-03-08T23:48:41.679Z,35.72
2023-03-08T23:51:11.685Z,39.60
2023-03-08T23:53:38.629Z,36.97
2023-03-08T23:56:06.980Z,38.67
2023-03-08T23:58:34.097Z,44.33
